sensor_id;sensor_type;location;lat;lon;timestamp;P1;durP1;ratioP1;P2;durP2;ratioP2
11498;SDS011;5806;48.748;9.278;2023-08-01T00:00:48;13.30;;;8.27;;
11498;SDS011;5806;48.748;9.278;2023-08-01T00:03:15;10.07;;;7.47;;
11498;SDS011;5806;48.748;9.278;2023-08-01T00:05:43;11.87;;;7.40;;
11498;SDS011;5806;48.748;9.278;2023-08-01T00:08:11;11.47;;;7.97;;
11498;SDS011;5806;48.748;9.278;2023-08-01T00:10:39;11.97;;;7.63;;
11498;SDS011;5806;48.748;9.278;2023-08-01T00:13:07;9.87;;;7.83;;
11498;SDS011;5806;48.748;9.278;2023-08-01T00:15:35;10.93;;;8.37;;
11498;SDS011;5806;48.748;9.278;2023-08-01T00:18:03;10.23;;;8.50;;
11498;SDS011;5806;48.748;9.278;2023-08-01T00:20:30;10.23;;;7.97;;
11498;SDS011;5806;48.748;9.278;2023-08-01T00:22:58;9.60;;;8.23;;
11498;SDS011;5806;48.748;9.278;2023-08-01T00:25:25;10.00;;;8.17;;
11498;SDS011;5806;48.748;9.278;2023-08-01T00:27:53;12.70;;;9.53;;
11498;SDS011;5806;48.748;9.278;2023-08-01T00:30:20;12.50;;;8.23;;
11498;SDS011;5806;48.748;9.278;2023-08-01T00:32:48;8.60;;;7.70;;
11498;SDS011;5806;48.748;9.278;2023-08-01T00:35:15;10.77;;;7.67;;
11498;SDS011;5806;48.748;9.278;2023-08-01T00:37:43;10.03;;;7.53;;
11498;SDS011;5806;48.748;9.278;2023-08-01T00:40:10;11.07;;;7.90;;
11498;SDS011;5806;48.748;9.278;2023-08-01T00:42:38;9.63;;;7.60;;
11498;SDS011;5806;48.748;9.278;2023-08-01T00:45:06;10.77;;;8.57;;
11498;SDS011;5806;48.748;9.278;2023-08-01T00:47:34;10.93;;;8.47;;
11498;SDS011;5806;48.748;9.278;2023-08-01T00:50:02;10.43;;;8.27;;
11498;SDS011;5806;48.748;9.278;2023-08-01T00:52:30;7.80;;;6.10;;
11498;SDS011;5806;48.748;9.278;2023-08-01T00:54:58;7.87;;;6.00;;
11498;SDS011;5806;48.748;9.278;2023-08-01T00:57:25;4.90;;;4.17;;
11498;SDS011;5806;48.748;9.278;2023-08-01T00:59:53;7.27;;;4.87;;
11498;SDS011;5806;48.748;9.278;2023-08-01T01:02:20;5.77;;;4.27;;
11498;SDS011;5806;48.748;9.278;2023-08-01T01:04:48;4.57;;;3.30;;
11498;SDS011;5806;48.748;9.278;2023-08-01T01:07:15;4.63;;;3.07;;
11498;SDS011;5806;48.748;9.278;2023-08-01T01:09:44;7.40;;;3.53;;
11498;SDS011;5806;48.748;9.278;2023-08-01T01:12:12;7.20;;;3.80;;
11498;SDS011;5806;48.748;9.278;2023-08-01T01:14:40;5.03;;;3.57;;
11498;SDS011;5806;48.748;9.278;2023-08-01T01:17:07;6.80;;;3.53;;
11498;SDS011;5806;48.748;9.278;2023-08-01T01:19:35;3.67;;;2.67;;
11498;SDS011;5806;48.748;9.278;2023-08-01T01:22:03;3.67;;;2.67;;
11498;SDS011;5806;48.748;9.278;2023-08-01T01:24:33;2.83;;;2.33;;
11498;SDS011;5806;48.748;9.278;2023-08-01T01:27:03;5.10;;;2.60;;
11498;SDS011;5806;48.748;9.278;2023-08-01T01:29:32;2.67;;;2.07;;
11498;SDS011;5806;48.748;9.278;2023-08-01T01:32:00;2.60;;;2.20;;
11498;SDS011;5806;48.748;9.278;2023-08-01T01:34:29;3.70;;;2.00;;
11498;SDS011;5806;48.748;9.278;2023-08-01T01:36:57;3.87;;;1.70;;
11498;SDS011;5806;48.748;9.278;2023-08-01T01:39:24;2.00;;;1.60;;
11498;SDS011;5806;48.748;9.278;2023-08-01T01:41:51;2.10;;;1.67;;
11498;SDS011;5806;48.748;9.278;2023-08-01T01:44:19;2.30;;;1.77;;
11498;SDS011;5806;48.748;9.278;2023-08-01T01:46:46;1.90;;;1.63;;
11498;SDS011;5806;48.748;9.278;2023-08-01T01:49:15;2.77;;;1.23;;
11498;SDS011;5806;48.748;9.278;2023-08-01T01:51:42;4.97;;;1.90;;
11498;SDS011;5806;48.748;9.278;2023-08-01T01:54:09;4.10;;;1.10;;
11498;SDS011;5806;48.748;9.278;2023-08-01T01:56:37;1.90;;;1.00;;
11498;SDS011;5806;48.748;9.278;2023-08-01T01:59:04;1.13;;;0.87;;
11498;SDS011;5806;48.748;9.278;2023-08-01T02:01:32;2.77;;;1.03;;
11498;SDS011;5806;48.748;9.278;2023-08-01T02:03:59;2.10;;;1.00;;
11498;SDS011;5806;48.748;9.278;2023-08-01T02:06:28;3.50;;;0.60;;
11498;SDS011;5806;48.748;9.278;2023-08-01T02:08:55;0.60;;;0.60;;
11498;SDS011;5806;48.748;9.278;2023-08-01T02:11:23;1.40;;;0.60;;
11498;SDS011;5806;48.748;9.278;2023-08-01T02:13:50;1.37;;;0.70;;
11498;SDS011;5806;48.748;9.278;2023-08-01T02:16:18;0.93;;;0.60;;
11498;SDS011;5806;48.748;9.278;2023-08-01T02:18:45;1.93;;;0.50;;
11498;SDS011;5806;48.748;9.278;2023-08-01T02:21:13;1.00;;;0.50;;
11498;SDS011;5806;48.748;9.278;2023-08-01T02:23:40;1.77;;;0.70;;
11498;SDS011;5806;48.748;9.278;2023-08-01T02:26:08;1.13;;;0.70;;
11498;SDS011;5806;48.748;9.278;2023-08-01T02:28:35;0.70;;;0.50;;
11498;SDS011;5806;48.748;9.278;2023-08-01T02:31:03;2.60;;;0.67;;
11498;SDS011;5806;48.748;9.278;2023-08-01T02:33:32;1.33;;;0.60;;
11498;SDS011;5806;48.748;9.278;2023-08-01T02:36:00;1.40;;;0.57;;
11498;SDS011;5806;48.748;9.278;2023-08-01T02:38:28;1.30;;;0.57;;
11498;SDS011;5806;48.748;9.278;2023-08-01T02:40:56;1.13;;;0.93;;
11498;SDS011;5806;48.748;9.278;2023-08-01T02:43:23;1.20;;;0.77;;
11498;SDS011;5806;48.748;9.278;2023-08-01T02:45:52;0.80;;;0.70;;
11498;SDS011;5806;48.748;9.278;2023-08-01T02:48:20;0.93;;;0.87;;
11498;SDS011;5806;48.748;9.278;2023-08-01T02:50:47;1.97;;;0.90;;
11498;SDS011;5806;48.748;9.278;2023-08-01T02:53:15;1.47;;;0.90;;
11498;SDS011;5806;48.748;9.278;2023-08-01T02:55:43;1.67;;;1.00;;
11498;SDS011;5806;48.748;9.278;2023-08-01T02:58:14;1.50;;;1.00;;
11498;SDS011;5806;48.748;9.278;2023-08-01T03:00:42;1.20;;;0.90;;
11498;SDS011;5806;48.748;9.278;2023-08-01T03:03:10;4.87;;;0.67;;
11498;SDS011;5806;48.748;9.278;2023-08-01T03:05:37;0.80;;;0.70;;
11498;SDS011;5806;48.748;9.278;2023-08-01T03:08:05;1.50;;;1.00;;
11498;SDS011;5806;48.748;9.278;2023-08-01T03:10:32;1.13;;;0.67;;
11498;SDS011;5806;48.748;9.278;2023-08-01T03:13:00;1.17;;;0.80;;
11498;SDS011;5806;48.748;9.278;2023-08-01T03:15:27;3.77;;;0.80;;
11498;SDS011;5806;48.748;9.278;2023-08-01T03:17:55;0.60;;;0.60;;
11498;SDS011;5806;48.748;9.278;2023-08-01T03:20:23;0.77;;;0.70;;
11498;SDS011;5806;48.748;9.278;2023-08-01T03:22:50;3.43;;;1.17;;
11498;SDS011;5806;48.748;9.278;2023-08-01T03:25:18;1.03;;;0.80;;
11498;SDS011;5806;48.748;9.278;2023-08-01T03:27:45;0.90;;;0.90;;
11498;SDS011;5806;48.748;9.278;2023-08-01T03:30:13;3.57;;;1.43;;
11498;SDS011;5806;48.748;9.278;2023-08-01T03:32:40;1.40;;;1.30;;
11498;SDS011;5806;48.748;9.278;2023-08-01T03:35:08;1.43;;;1.30;;
11498;SDS011;5806;48.748;9.278;2023-08-01T03:37:35;2.17;;;1.60;;
11498;SDS011;5806;48.748;9.278;2023-08-01T03:40:03;2.00;;;1.40;;
11498;SDS011;5806;48.748;9.278;2023-08-01T03:42:34;2.03;;;1.70;;
11498;SDS011;5806;48.748;9.278;2023-08-01T03:45:03;5.40;;;2.20;;
11498;SDS011;5806;48.748;9.278;2023-08-01T03:47:31;2.27;;;1.83;;
11498;SDS011;5806;48.748;9.278;2023-08-01T03:49:59;2.13;;;1.87;;
11498;SDS011;5806;48.748;9.278;2023-08-01T03:52:26;2.07;;;1.87;;
11498;SDS011;5806;48.748;9.278;2023-08-01T03:54:54;2.13;;;1.80;;
11498;SDS011;5806;48.748;9.278;2023-08-01T03:57:22;2.70;;;2.20;;
11498;SDS011;5806;48.748;9.278;2023-08-01T03:59:50;3.63;;;2.07;;
11498;SDS011;5806;48.748;9.278;2023-08-01T04:02:17;2.80;;;2.20;;
11498;SDS011;5806;48.748;9.278;2023-08-01T04:04:45;4.07;;;2.80;;
11498;SDS011;5806;48.748;9.278;2023-08-01T04:07:12;4.33;;;3.33;;
11498;SDS011;5806;48.748;9.278;2023-08-01T04:09:40;4.63;;;4.23;;
11498;SDS011;5806;48.748;9.278;2023-08-01T04:12:07;5.53;;;4.63;;
11498;SDS011;5806;48.748;9.278;2023-08-01T04:14:35;7.23;;;5.07;;
11498;SDS011;5806;48.748;9.278;2023-08-01T04:17:03;8.90;;;5.77;;
11498;SDS011;5806;48.748;9.278;2023-08-01T04:19:30;7.20;;;5.50;;
11498;SDS011;5806;48.748;9.278;2023-08-01T04:21:58;11.57;;;6.50;;
11498;SDS011;5806;48.748;9.278;2023-08-01T04:24:25;9.07;;;6.40;;
11498;SDS011;5806;48.748;9.278;2023-08-01T04:26:53;9.07;;;6.90;;
11498;SDS011;5806;48.748;9.278;2023-08-01T04:29:21;9.57;;;7.17;;
11498;SDS011;5806;48.748;9.278;2023-08-01T04:31:48;10.03;;;6.80;;
11498;SDS011;5806;48.748;9.278;2023-08-01T04:34:16;8.93;;;7.60;;
11498;SDS011;5806;48.748;9.278;2023-08-01T04:36:43;10.73;;;6.93;;
11498;SDS011;5806;48.748;9.278;2023-08-01T04:39:11;9.63;;;7.23;;
11498;SDS011;5806;48.748;9.278;2023-08-01T04:41:38;8.00;;;6.90;;
11498;SDS011;5806;48.748;9.278;2023-08-01T04:44:06;10.53;;;7.53;;
11498;SDS011;5806;48.748;9.278;2023-08-01T04:46:33;9.77;;;7.37;;
11498;SDS011;5806;48.748;9.278;2023-08-01T04:49:01;9.43;;;6.83;;
11498;SDS011;5806;48.748;9.278;2023-08-01T04:51:28;8.97;;;7.00;;
11498;SDS011;5806;48.748;9.278;2023-08-01T04:53:56;11.57;;;7.37;;
11498;SDS011;5806;48.748;9.278;2023-08-01T04:56:23;11.37;;;7.63;;
11498;SDS011;5806;48.748;9.278;2023-08-01T04:58:51;8.10;;;7.23;;
11498;SDS011;5806;48.748;9.278;2023-08-01T05:01:18;10.97;;;7.20;;
11498;SDS011;5806;48.748;9.278;2023-08-01T05:03:46;10.07;;;7.57;;
11498;SDS011;5806;48.748;9.278;2023-08-01T05:06:13;10.97;;;8.03;;
11498;SDS011;5806;48.748;9.278;2023-08-01T05:08:41;11.47;;;7.47;;
11498;SDS011;5806;48.748;9.278;2023-08-01T05:11:08;12.13;;;7.80;;
11498;SDS011;5806;48.748;9.278;2023-08-01T05:13:36;11.57;;;8.17;;
11498;SDS011;5806;48.748;9.278;2023-08-01T05:16:03;9.33;;;7.37;;
11498;SDS011;5806;48.748;9.278;2023-08-01T05:18:31;13.13;;;6.83;;
11498;SDS011;5806;48.748;9.278;2023-08-01T05:20:58;12.33;;;7.50;;
11498;SDS011;5806;48.748;9.278;2023-08-01T05:23:26;12.07;;;6.57;;
11498;SDS011;5806;48.748;9.278;2023-08-01T05:25:53;10.77;;;7.33;;
11498;SDS011;5806;48.748;9.278;2023-08-01T05:28:21;7.67;;;6.10;;
11498;SDS011;5806;48.748;9.278;2023-08-01T05:30:48;8.53;;;6.47;;
11498;SDS011;5806;48.748;9.278;2023-08-01T05:33:15;11.13;;;7.10;;
11498;SDS011;5806;48.748;9.278;2023-08-01T05:35:43;11.27;;;6.50;;
11498;SDS011;5806;48.748;9.278;2023-08-01T05:38:10;10.37;;;6.57;;
11498;SDS011;5806;48.748;9.278;2023-08-01T05:40:38;9.87;;;7.50;;
11498;SDS011;5806;48.748;9.278;2023-08-01T05:43:05;8.87;;;5.87;;
11498;SDS011;5806;48.748;9.278;2023-08-01T05:45:34;11.47;;;6.30;;
11498;SDS011;5806;48.748;9.278;2023-08-01T05:48:02;8.57;;;6.13;;
11498;SDS011;5806;48.748;9.278;2023-08-01T05:50:30;9.00;;;5.97;;
11498;SDS011;5806;48.748;9.278;2023-08-01T05:52:57;11.23;;;6.07;;
11498;SDS011;5806;48.748;9.278;2023-08-01T05:55:25;8.87;;;6.13;;
11498;SDS011;5806;48.748;9.278;2023-08-01T05:57:52;11.47;;;6.17;;
11498;SDS011;5806;48.748;9.278;2023-08-01T06:00:20;10.87;;;6.37;;
11498;SDS011;5806;48.748;9.278;2023-08-01T06:02:47;9.57;;;6.57;;
11498;SDS011;5806;48.748;9.278;2023-08-01T06:05:15;11.47;;;5.20;;
11498;SDS011;5806;48.748;9.278;2023-08-01T06:07:43;9.83;;;6.00;;
11498;SDS011;5806;48.748;9.278;2023-08-01T06:10:10;10.80;;;6.20;;
11498;SDS011;5806;48.748;9.278;2023-08-01T06:12:38;10.30;;;5.43;;
11498;SDS011;5806;48.748;9.278;2023-08-01T06:15:05;6.87;;;4.87;;
11498;SDS011;5806;48.748;9.278;2023-08-01T06:17:33;7.83;;;4.90;;
11498;SDS011;5806;48.748;9.278;2023-08-01T06:20:00;10.13;;;5.03;;
11498;SDS011;5806;48.748;9.278;2023-08-01T06:22:29;10.67;;;5.53;;
11498;SDS011;5806;48.748;9.278;2023-08-01T06:24:57;8.20;;;4.97;;
11498;SDS011;5806;48.748;9.278;2023-08-01T06:27:24;11.37;;;5.30;;
11498;SDS011;5806;48.748;9.278;2023-08-01T06:29:52;7.87;;;5.20;;
11498;SDS011;5806;48.748;9.278;2023-08-01T06:32:19;9.10;;;4.90;;
11498;SDS011;5806;48.748;9.278;2023-08-01T06:34:46;10.07;;;5.13;;
11498;SDS011;5806;48.748;9.278;2023-08-01T06:37:14;6.63;;;5.30;;
11498;SDS011;5806;48.748;9.278;2023-08-01T06:39:41;7.43;;;5.23;;
11498;SDS011;5806;48.748;9.278;2023-08-01T06:42:09;6.77;;;4.80;;
11498;SDS011;5806;48.748;9.278;2023-08-01T06:44:36;8.70;;;4.93;;
11498;SDS011;5806;48.748;9.278;2023-08-01T06:47:04;8.63;;;5.20;;
11498;SDS011;5806;48.748;9.278;2023-08-01T06:49:31;9.50;;;5.23;;
11498;SDS011;5806;48.748;9.278;2023-08-01T06:51:59;9.37;;;5.27;;
11498;SDS011;5806;48.748;9.278;2023-08-01T06:54:26;9.03;;;5.23;;
11498;SDS011;5806;48.748;9.278;2023-08-01T06:56:54;9.10;;;5.60;;
11498;SDS011;5806;48.748;9.278;2023-08-01T06:59:21;8.60;;;5.13;;
11498;SDS011;5806;48.748;9.278;2023-08-01T07:01:48;7.17;;;5.27;;
11498;SDS011;5806;48.748;9.278;2023-08-01T07:04:16;8.60;;;4.90;;
11498;SDS011;5806;48.748;9.278;2023-08-01T07:06:43;7.40;;;5.00;;
11498;SDS011;5806;48.748;9.278;2023-08-01T07:09:11;13.40;;;5.93;;
11498;SDS011;5806;48.748;9.278;2023-08-01T07:11:38;8.13;;;5.33;;
11498;SDS011;5806;48.748;9.278;2023-08-01T07:14:06;9.93;;;5.10;;
11498;SDS011;5806;48.748;9.278;2023-08-01T07:16:33;10.93;;;5.17;;
11498;SDS011;5806;48.748;9.278;2023-08-01T07:19:01;11.87;;;5.53;;
11498;SDS011;5806;48.748;9.278;2023-08-01T07:21:28;11.10;;;5.23;;
11498;SDS011;5806;48.748;9.278;2023-08-01T07:23:56;8.90;;;5.20;;
11498;SDS011;5806;48.748;9.278;2023-08-01T07:26:23;8.37;;;5.17;;
11498;SDS011;5806;48.748;9.278;2023-08-01T07:28:51;10.00;;;5.50;;
11498;SDS011;5806;48.748;9.278;2023-08-01T07:31:18;11.23;;;4.93;;
11498;SDS011;5806;48.748;9.278;2023-08-01T07:33:45;9.30;;;5.23;;
11498;SDS011;5806;48.748;9.278;2023-08-01T07:36:13;10.07;;;5.13;;
11498;SDS011;5806;48.748;9.278;2023-08-01T07:38:40;9.83;;;5.63;;
11498;SDS011;5806;48.748;9.278;2023-08-01T07:41:08;8.93;;;5.30;;
11498;SDS011;5806;48.748;9.278;2023-08-01T07:43:35;10.43;;;6.07;;
11498;SDS011;5806;48.748;9.278;2023-08-01T07:46:02;7.37;;;4.90;;
11498;SDS011;5806;48.748;9.278;2023-08-01T07:48:30;8.97;;;5.40;;
11498;SDS011;5806;48.748;9.278;2023-08-01T07:50:58;7.90;;;5.23;;
11498;SDS011;5806;48.748;9.278;2023-08-01T07:53:25;8.50;;;4.87;;
11498;SDS011;5806;48.748;9.278;2023-08-01T07:55:54;9.07;;;5.57;;
11498;SDS011;5806;48.748;9.278;2023-08-01T07:58:22;11.00;;;5.10;;
11498;SDS011;5806;48.748;9.278;2023-08-01T08:00:50;9.07;;;6.00;;
11498;SDS011;5806;48.748;9.278;2023-08-01T08:03:17;8.77;;;5.43;;
11498;SDS011;5806;48.748;9.278;2023-08-01T08:05:46;10.23;;;5.77;;
11498;SDS011;5806;48.748;9.278;2023-08-01T08:08:14;7.37;;;5.00;;
11498;SDS011;5806;48.748;9.278;2023-08-01T08:10:41;8.13;;;5.30;;
11498;SDS011;5806;48.748;9.278;2023-08-01T08:13:09;8.90;;;6.10;;
11498;SDS011;5806;48.748;9.278;2023-08-01T08:15:36;9.83;;;5.03;;
11498;SDS011;5806;48.748;9.278;2023-08-01T08:18:03;7.93;;;5.13;;
11498;SDS011;5806;48.748;9.278;2023-08-01T08:20:31;11.10;;;4.83;;
11498;SDS011;5806;48.748;9.278;2023-08-01T08:23:00;9.40;;;4.83;;
11498;SDS011;5806;48.748;9.278;2023-08-01T08:25:28;9.93;;;5.30;;
11498;SDS011;5806;48.748;9.278;2023-08-01T08:27:55;10.27;;;4.70;;
11498;SDS011;5806;48.748;9.278;2023-08-01T08:30:22;8.27;;;4.90;;
11498;SDS011;5806;48.748;9.278;2023-08-01T08:32:50;9.67;;;5.07;;
11498;SDS011;5806;48.748;9.278;2023-08-01T08:35:17;6.60;;;4.07;;
11498;SDS011;5806;48.748;9.278;2023-08-01T08:37:45;9.40;;;4.27;;
11498;SDS011;5806;48.748;9.278;2023-08-01T08:40:12;8.63;;;4.17;;
11498;SDS011;5806;48.748;9.278;2023-08-01T08:42:40;9.23;;;4.77;;
11498;SDS011;5806;48.748;9.278;2023-08-01T08:45:09;8.30;;;4.60;;
11498;SDS011;5806;48.748;9.278;2023-08-01T08:47:38;7.50;;;4.67;;
11498;SDS011;5806;48.748;9.278;2023-08-01T08:50:08;9.63;;;5.50;;
11498;SDS011;5806;48.748;9.278;2023-08-01T08:52:37;7.77;;;4.20;;
11498;SDS011;5806;48.748;9.278;2023-08-01T08:55:05;9.17;;;4.43;;
11498;SDS011;5806;48.748;9.278;2023-08-01T08:57:33;12.40;;;4.83;;
11498;SDS011;5806;48.748;9.278;2023-08-01T09:00:01;4.80;;;4.20;;
11498;SDS011;5806;48.748;9.278;2023-08-01T09:02:32;18.77;;;6.07;;
11498;SDS011;5806;48.748;9.278;2023-08-01T09:04:59;7.83;;;4.47;;
11498;SDS011;5806;48.748;9.278;2023-08-01T09:07:27;8.43;;;4.23;;
11498;SDS011;5806;48.748;9.278;2023-08-01T09:09:56;7.20;;;4.27;;
11498;SDS011;5806;48.748;9.278;2023-08-01T09:12:24;8.10;;;4.50;;
11498;SDS011;5806;48.748;9.278;2023-08-01T09:14:52;9.93;;;4.40;;
11498;SDS011;5806;48.748;9.278;2023-08-01T09:17:23;7.87;;;4.10;;
11498;SDS011;5806;48.748;9.278;2023-08-01T09:19:54;8.40;;;4.37;;
11498;SDS011;5806;48.748;9.278;2023-08-01T09:22:23;8.73;;;3.80;;
11498;SDS011;5806;48.748;9.278;2023-08-01T09:24:53;8.37;;;3.90;;
11498;SDS011;5806;48.748;9.278;2023-08-01T09:27:21;6.43;;;3.23;;
11498;SDS011;5806;48.748;9.278;2023-08-01T09:29:49;7.43;;;3.50;;
11498;SDS011;5806;48.748;9.278;2023-08-01T09:32:16;9.20;;;3.83;;
11498;SDS011;5806;48.748;9.278;2023-08-01T09:34:44;6.93;;;4.07;;
11498;SDS011;5806;48.748;9.278;2023-08-01T09:37:11;9.07;;;3.83;;
11498;SDS011;5806;48.748;9.278;2023-08-01T09:39:39;11.33;;;4.63;;
11498;SDS011;5806;48.748;9.278;2023-08-01T09:42:07;6.03;;;3.37;;
11498;SDS011;5806;48.748;9.278;2023-08-01T09:44:35;8.20;;;3.70;;
11498;SDS011;5806;48.748;9.278;2023-08-01T09:47:03;5.67;;;3.57;;
11498;SDS011;5806;48.748;9.278;2023-08-01T09:49:35;6.07;;;3.17;;
11498;SDS011;5806;48.748;9.278;2023-08-01T09:52:03;3.83;;;3.03;;
11498;SDS011;5806;48.748;9.278;2023-08-01T09:54:31;5.50;;;3.00;;
11498;SDS011;5806;48.748;9.278;2023-08-01T09:56:58;7.03;;;3.60;;
11498;SDS011;5806;48.748;9.278;2023-08-01T09:59:29;7.13;;;3.30;;
11498;SDS011;5806;48.748;9.278;2023-08-01T10:01:57;6.70;;;3.50;;
11498;SDS011;5806;48.748;9.278;2023-08-01T10:07:00;7.60;;;3.40;;
11498;SDS011;5806;48.748;9.278;2023-08-01T10:09:32;6.27;;;3.00;;
11498;SDS011;5806;48.748;9.278;2023-08-01T10:12:04;5.50;;;3.53;;
11498;SDS011;5806;48.748;9.278;2023-08-01T10:14:32;5.27;;;3.33;;
11498;SDS011;5806;48.748;9.278;2023-08-01T10:17:01;4.47;;;3.20;;
11498;SDS011;5806;48.748;9.278;2023-08-01T10:19:30;7.50;;;3.17;;
11498;SDS011;5806;48.748;9.278;2023-08-01T10:21:58;5.30;;;3.30;;
11498;SDS011;5806;48.748;9.278;2023-08-01T10:24:27;5.40;;;3.60;;
11498;SDS011;5806;48.748;9.278;2023-08-01T10:26:56;6.73;;;3.77;;
11498;SDS011;5806;48.748;9.278;2023-08-01T10:29:34;5.73;;;3.40;;
11498;SDS011;5806;48.748;9.278;2023-08-01T10:32:02;7.00;;;3.40;;
11498;SDS011;5806;48.748;9.278;2023-08-01T10:34:31;5.83;;;3.03;;
11498;SDS011;5806;48.748;9.278;2023-08-01T10:36:59;4.13;;;2.70;;
11498;SDS011;5806;48.748;9.278;2023-08-01T10:39:27;7.20;;;3.17;;
11498;SDS011;5806;48.748;9.278;2023-08-01T10:41:59;6.73;;;3.33;;
11498;SDS011;5806;48.748;9.278;2023-08-01T10:44:27;6.30;;;3.00;;
11498;SDS011;5806;48.748;9.278;2023-08-01T10:47:03;8.93;;;2.90;;
11498;SDS011;5806;48.748;9.278;2023-08-01T10:49:41;6.27;;;2.83;;
11498;SDS011;5806;48.748;9.278;2023-08-01T10:54:48;7.03;;;3.27;;
11498;SDS011;5806;48.748;9.278;2023-08-01T10:57:30;6.47;;;3.17;;
11498;SDS011;5806;48.748;9.278;2023-08-01T10:59:58;4.97;;;2.70;;
11498;SDS011;5806;48.748;9.278;2023-08-01T11:02:27;8.13;;;3.03;;
11498;SDS011;5806;48.748;9.278;2023-08-01T11:07:31;5.90;;;3.20;;
11498;SDS011;5806;48.748;9.278;2023-08-01T11:10:07;7.87;;;2.80;;
11498;SDS011;5806;48.748;9.278;2023-08-01T11:12:36;5.27;;;3.30;;
11498;SDS011;5806;48.748;9.278;2023-08-01T11:15:09;5.47;;;2.40;;
11498;SDS011;5806;48.748;9.278;2023-08-01T11:17:38;6.97;;;2.90;;
11498;SDS011;5806;48.748;9.278;2023-08-01T11:20:11;4.40;;;2.20;;
11498;SDS011;5806;48.748;9.278;2023-08-01T11:22:49;5.53;;;2.50;;
11498;SDS011;5806;48.748;9.278;2023-08-01T11:25:18;4.33;;;2.10;;
11498;SDS011;5806;48.748;9.278;2023-08-01T11:27:46;3.87;;;2.33;;
11498;SDS011;5806;48.748;9.278;2023-08-01T11:30:14;4.90;;;2.50;;
11498;SDS011;5806;48.748;9.278;2023-08-01T11:32:41;3.37;;;2.13;;
11498;SDS011;5806;48.748;9.278;2023-08-01T11:35:09;4.53;;;2.53;;
11498;SDS011;5806;48.748;9.278;2023-08-01T11:37:39;6.80;;;2.43;;
11498;SDS011;5806;48.748;9.278;2023-08-01T11:40:07;4.43;;;2.43;;
11498;SDS011;5806;48.748;9.278;2023-08-01T11:42:34;6.07;;;2.30;;
11498;SDS011;5806;48.748;9.278;2023-08-01T11:45:11;3.07;;;1.97;;
11498;SDS011;5806;48.748;9.278;2023-08-01T11:47:50;5.17;;;2.17;;
11498;SDS011;5806;48.748;9.278;2023-08-01T11:50:19;4.17;;;2.27;;
11498;SDS011;5806;48.748;9.278;2023-08-01T11:52:50;3.63;;;2.13;;
11498;SDS011;5806;48.748;9.278;2023-08-01T11:55:18;5.40;;;2.87;;
11498;SDS011;5806;48.748;9.278;2023-08-01T11:57:54;4.10;;;2.37;;
11498;SDS011;5806;48.748;9.278;2023-08-01T12:00:26;4.43;;;2.00;;
11498;SDS011;5806;48.748;9.278;2023-08-01T12:03:07;3.97;;;1.80;;
11498;SDS011;5806;48.748;9.278;2023-08-01T12:05:39;5.27;;;2.13;;
11498;SDS011;5806;48.748;9.278;2023-08-01T12:08:10;7.90;;;2.37;;
11498;SDS011;5806;48.748;9.278;2023-08-01T12:10:39;3.37;;;2.20;;
11498;SDS011;5806;48.748;9.278;2023-08-01T12:13:24;3.33;;;2.10;;
11498;SDS011;5806;48.748;9.278;2023-08-01T12:15:53;4.63;;;2.07;;
11498;SDS011;5806;48.748;9.278;2023-08-01T12:18:29;5.27;;;2.20;;
11498;SDS011;5806;48.748;9.278;2023-08-01T12:20:55;4.10;;;2.17;;
11498;SDS011;5806;48.748;9.278;2023-08-01T12:23:22;4.47;;;2.60;;
11498;SDS011;5806;48.748;9.278;2023-08-01T12:25:50;4.20;;;2.20;;
11498;SDS011;5806;48.748;9.278;2023-08-01T12:28:17;4.63;;;2.13;;
11498;SDS011;5806;48.748;9.278;2023-08-01T12:30:45;5.80;;;2.40;;
11498;SDS011;5806;48.748;9.278;2023-08-01T12:33:12;3.50;;;2.07;;
11498;SDS011;5806;48.748;9.278;2023-08-01T12:35:40;4.87;;;2.20;;
11498;SDS011;5806;48.748;9.278;2023-08-01T12:38:08;3.90;;;2.20;;
11498;SDS011;5806;48.748;9.278;2023-08-01T12:40:36;6.07;;;2.17;;
11498;SDS011;5806;48.748;9.278;2023-08-01T12:43:03;5.40;;;2.00;;
11498;SDS011;5806;48.748;9.278;2023-08-01T12:45:31;4.13;;;2.07;;
11498;SDS011;5806;48.748;9.278;2023-08-01T12:47:58;3.90;;;2.20;;
11498;SDS011;5806;48.748;9.278;2023-08-01T12:50:26;3.73;;;2.07;;
11498;SDS011;5806;48.748;9.278;2023-08-01T12:52:53;6.30;;;2.67;;
11498;SDS011;5806;48.748;9.278;2023-08-01T12:55:21;10.13;;;4.03;;
11498;SDS011;5806;48.748;9.278;2023-08-01T12:57:48;7.77;;;4.27;;
11498;SDS011;5806;48.748;9.278;2023-08-01T13:00:17;7.03;;;3.80;;
11498;SDS011;5806;48.748;9.278;2023-08-01T13:02:44;11.13;;;5.03;;
11498;SDS011;5806;48.748;9.278;2023-08-01T13:05:13;8.37;;;4.90;;
11498;SDS011;5806;48.748;9.278;2023-08-01T13:07:40;6.00;;;4.57;;
11498;SDS011;5806;48.748;9.278;2023-08-01T13:10:07;7.87;;;4.53;;
11498;SDS011;5806;48.748;9.278;2023-08-01T13:12:35;9.47;;;4.57;;
11498;SDS011;5806;48.748;9.278;2023-08-01T13:15:03;6.30;;;4.30;;
11498;SDS011;5806;48.748;9.278;2023-08-01T13:17:31;8.80;;;4.57;;
11498;SDS011;5806;48.748;9.278;2023-08-01T13:19:58;7.80;;;4.03;;
11498;SDS011;5806;48.748;9.278;2023-08-01T13:22:26;9.07;;;4.50;;
11498;SDS011;5806;48.748;9.278;2023-08-01T13:24:53;7.67;;;5.00;;
11498;SDS011;5806;48.748;9.278;2023-08-01T13:27:21;9.60;;;4.77;;
11498;SDS011;5806;48.748;9.278;2023-08-01T13:29:48;6.57;;;4.23;;
11498;SDS011;5806;48.748;9.278;2023-08-01T13:32:17;7.07;;;4.33;;
11498;SDS011;5806;48.748;9.278;2023-08-01T13:34:45;6.90;;;4.40;;
11498;SDS011;5806;48.748;9.278;2023-08-01T13:37:13;8.00;;;4.07;;
11498;SDS011;5806;48.748;9.278;2023-08-01T13:39:40;8.27;;;4.13;;
11498;SDS011;5806;48.748;9.278;2023-08-01T13:42:08;8.27;;;4.87;;
11498;SDS011;5806;48.748;9.278;2023-08-01T13:44:35;7.37;;;5.23;;
11498;SDS011;5806;48.748;9.278;2023-08-01T13:47:02;7.20;;;4.60;;
11498;SDS011;5806;48.748;9.278;2023-08-01T13:49:30;9.60;;;4.97;;
11498;SDS011;5806;48.748;9.278;2023-08-01T13:51:58;11.17;;;5.20;;
11498;SDS011;5806;48.748;9.278;2023-08-01T13:54:26;9.17;;;4.20;;
11498;SDS011;5806;48.748;9.278;2023-08-01T13:56:54;8.33;;;4.87;;
11498;SDS011;5806;48.748;9.278;2023-08-01T13:59:21;9.10;;;4.50;;
11498;SDS011;5806;48.748;9.278;2023-08-01T14:01:49;10.93;;;5.27;;
11498;SDS011;5806;48.748;9.278;2023-08-01T14:04:16;8.53;;;4.80;;
11498;SDS011;5806;48.748;9.278;2023-08-01T14:06:44;8.80;;;4.90;;
11498;SDS011;5806;48.748;9.278;2023-08-01T14:09:11;8.33;;;5.10;;
11498;SDS011;5806;48.748;9.278;2023-08-01T14:11:39;7.10;;;3.97;;
11498;SDS011;5806;48.748;9.278;2023-08-01T14:14:07;4.20;;;3.60;;
11498;SDS011;5806;48.748;9.278;2023-08-01T14:16:34;6.70;;;3.90;;
11498;SDS011;5806;48.748;9.278;2023-08-01T14:19:01;4.63;;;3.77;;
11498;SDS011;5806;48.748;9.278;2023-08-01T14:21:30;5.50;;;3.70;;
11498;SDS011;5806;48.748;9.278;2023-08-01T14:24:00;7.27;;;4.30;;
11498;SDS011;5806;48.748;9.278;2023-08-01T14:26:27;5.17;;;4.23;;
11498;SDS011;5806;48.748;9.278;2023-08-01T14:28:54;6.60;;;4.30;;
11498;SDS011;5806;48.748;9.278;2023-08-01T14:31:22;8.43;;;4.53;;
11498;SDS011;5806;48.748;9.278;2023-08-01T14:33:49;8.07;;;4.57;;
11498;SDS011;5806;48.748;9.278;2023-08-01T14:36:17;7.87;;;4.93;;
11498;SDS011;5806;48.748;9.278;2023-08-01T14:38:44;6.57;;;4.10;;
11498;SDS011;5806;48.748;9.278;2023-08-01T14:41:13;6.03;;;4.27;;
11498;SDS011;5806;48.748;9.278;2023-08-01T14:43:41;7.43;;;4.73;;
11498;SDS011;5806;48.748;9.278;2023-08-01T14:46:10;7.60;;;4.60;;
11498;SDS011;5806;48.748;9.278;2023-08-01T14:48:37;7.30;;;4.57;;
11498;SDS011;5806;48.748;9.278;2023-08-01T14:51:06;10.00;;;5.37;;
11498;SDS011;5806;48.748;9.278;2023-08-01T14:53:33;8.60;;;4.53;;
11498;SDS011;5806;48.748;9.278;2023-08-01T14:56:01;8.37;;;5.60;;
11498;SDS011;5806;48.748;9.278;2023-08-01T14:58:30;9.60;;;5.10;;
11498;SDS011;5806;48.748;9.278;2023-08-01T15:00:58;8.90;;;4.73;;
11498;SDS011;5806;48.748;9.278;2023-08-01T15:03:25;8.93;;;5.00;;
11498;SDS011;5806;48.748;9.278;2023-08-01T15:05:53;9.60;;;5.00;;
11498;SDS011;5806;48.748;9.278;2023-08-01T15:08:20;5.90;;;3.37;;
11498;SDS011;5806;48.748;9.278;2023-08-01T15:10:48;8.63;;;3.53;;